sensor_id;sensor_type;location;lat;lon;timestamp;P1;durP1;ratioP1;P2;durP2;ratioP2
6342;SDS011;3204;42.698;23.298;2023-01-29T00:01:05;15.13;;;11.20;;
6342;SDS011;3204;42.698;23.298;2023-01-29T00:03:31;11.67;;;10.20;;
6342;SDS011;3204;42.698;23.298;2023-01-29T00:05:57;9.97;;;8.93;;
6342;SDS011;3204;42.698;23.298;2023-01-29T00:08:23;12.03;;;10.77;;
6342;SDS011;3204;42.698;23.298;2023-01-29T00:10:49;11.83;;;10.57;;
6342;SDS011;3204;42.698;23.298;2023-01-29T00:13:15;12.47;;;10.30;;
6342;SDS011;3204;42.698;23.298;2023-01-29T00:15:40;11.57;;;10.30;;
6342;SDS011;3204;42.698;23.298;2023-01-29T00:18:06;12.00;;;10.37;;
6342;SDS011;3204;42.698;23.298;2023-01-29T00:20:32;15.70;;;11.17;;
6342;SDS011;3204;42.698;23.298;2023-01-29T00:22:58;13.87;;;11.00;;
6342;SDS011;3204;42.698;23.298;2023-01-29T00:25:23;15.43;;;11.20;;
6342;SDS011;3204;42.698;23.298;2023-01-29T00:27:49;15.00;;;11.20;;
6342;SDS011;3204;42.698;23.298;2023-01-29T00:30:15;14.87;;;11.33;;
6342;SDS011;3204;42.698;23.298;2023-01-29T00:32:43;15.00;;;11.57;;
6342;SDS011;3204;42.698;23.298;2023-01-29T00:35:10;12.37;;;11.07;;
6342;SDS011;3204;42.698;23.298;2023-01-29T00:37:36;12.93;;;10.83;;
6342;SDS011;3204;42.698;23.298;2023-01-29T00:40:02;12.03;;;10.37;;
6342;SDS011;3204;42.698;23.298;2023-01-29T00:42:28;18.13;;;13.20;;
6342;SDS011;3204;42.698;23.298;2023-01-29T00:45:13;11.77;;;10.47;;
6342;SDS011;3204;42.698;23.298;2023-01-29T00:47:38;14.57;;;11.63;;
6342;SDS011;3204;42.698;23.298;2023-01-29T00:50:06;14.10;;;11.57;;
6342;SDS011;3204;42.698;23.298;2023-01-29T00:52:33;13.13;;;11.77;;
6342;SDS011;3204;42.698;23.298;2023-01-29T00:55:00;13.67;;;11.77;;
6342;SDS011;3204;42.698;23.298;2023-01-29T00:57:27;15.73;;;12.00;;
6342;SDS011;3204;42.698;23.298;2023-01-29T00:59:54;13.43;;;11.43;;
6342;SDS011;3204;42.698;23.298;2023-01-29T01:02:19;12.37;;;11.17;;
6342;SDS011;3204;42.698;23.298;2023-01-29T01:05:04;12.97;;;11.63;;
6342;SDS011;3204;42.698;23.298;2023-01-29T01:07:31;11.43;;;9.77;;
6342;SDS011;3204;42.698;23.298;2023-01-29T01:09:57;10.63;;;9.50;;
6342;SDS011;3204;42.698;23.298;2023-01-29T01:12:41;10.80;;;9.80;;
6342;SDS011;3204;42.698;23.298;2023-01-29T01:15:07;11.00;;;9.83;;
6342;SDS011;3204;42.698;23.298;2023-01-29T01:17:33;12.50;;;11.20;;
6342;SDS011;3204;42.698;23.298;2023-01-29T01:19:58;13.60;;;11.30;;
6342;SDS011;3204;42.698;23.298;2023-01-29T01:22:24;10.63;;;9.70;;
6342;SDS011;3204;42.698;23.298;2023-01-29T01:24:49;11.73;;;10.53;;
6342;SDS011;3204;42.698;23.298;2023-01-29T01:27:15;12.17;;;10.77;;
6342;SDS011;3204;42.698;23.298;2023-01-29T01:29:41;10.60;;;9.50;;
6342;SDS011;3204;42.698;23.298;2023-01-29T01:32:06;9.80;;;9.00;;
6342;SDS011;3204;42.698;23.298;2023-01-29T01:34:34;11.27;;;10.17;;
6342;SDS011;3204;42.698;23.298;2023-01-29T01:37:00;11.70;;;10.27;;
6342;SDS011;3204;42.698;23.298;2023-01-29T01:39:25;10.57;;;9.50;;
6342;SDS011;3204;42.698;23.298;2023-01-29T01:41:51;14.50;;;10.73;;
6342;SDS011;3204;42.698;23.298;2023-01-29T01:50:10;10.70;;;9.70;;
6342;SDS011;3204;42.698;23.298;2023-01-29T01:52:50;13.67;;;9.77;;
6342;SDS011;3204;42.698;23.298;2023-01-29T01:55:20;18.90;;;13.13;;
6342;SDS011;3204;42.698;23.298;2023-01-29T01:57:51;13.53;;;11.10;;
6342;SDS011;3204;42.698;23.298;2023-01-29T02:00:24;11.20;;;10.10;;
6342;SDS011;3204;42.698;23.298;2023-01-29T02:02:50;11.43;;;10.33;;
6342;SDS011;3204;42.698;23.298;2023-01-29T02:05:35;13.93;;;9.63;;
6342;SDS011;3204;42.698;23.298;2023-01-29T02:11:47;15.63;;;11.27;;
6342;SDS011;3204;42.698;23.298;2023-01-29T02:14:14;16.90;;;11.53;;
6342;SDS011;3204;42.698;23.298;2023-01-29T02:16:39;30.70;;;17.23;;
6342;SDS011;3204;42.698;23.298;2023-01-29T02:19:07;28.67;;;14.10;;
6342;SDS011;3204;42.698;23.298;2023-01-29T02:37:32;11.77;;;10.57;;
6342;SDS011;3204;42.698;23.298;2023-01-29T02:42:36;11.33;;;10.13;;
6342;SDS011;3204;42.698;23.298;2023-01-29T02:45:13;11.30;;;10.10;;
6342;SDS011;3204;42.698;23.298;2023-01-29T02:47:54;14.33;;;11.20;;
6342;SDS011;3204;42.698;23.298;2023-01-29T02:50:27;15.37;;;11.23;;
6342;SDS011;3204;42.698;23.298;2023-01-29T02:53:17;14.57;;;12.07;;
6342;SDS011;3204;42.698;23.298;2023-01-29T02:58:45;14.63;;;11.43;;
6342;SDS011;3204;42.698;23.298;2023-01-29T03:01:19;13.80;;;10.67;;
6342;SDS011;3204;42.698;23.298;2023-01-29T03:03:54;10.73;;;9.63;;
6342;SDS011;3204;42.698;23.298;2023-01-29T03:06:26;11.67;;;10.50;;
6342;SDS011;3204;42.698;23.298;2023-01-29T03:08:57;10.60;;;9.63;;
6342;SDS011;3204;42.698;23.298;2023-01-29T03:11:26;12.43;;;10.87;;
6342;SDS011;3204;42.698;23.298;2023-01-29T03:14:01;10.90;;;9.97;;
6342;SDS011;3204;42.698;23.298;2023-01-29T03:16:35;11.13;;;10.23;;
6342;SDS011;3204;42.698;23.298;2023-01-29T03:19:07;12.50;;;10.67;;
6342;SDS011;3204;42.698;23.298;2023-01-29T03:21:38;9.63;;;8.80;;
6342;SDS011;3204;42.698;23.298;2023-01-29T03:30:29;11.27;;;9.57;;
6342;SDS011;3204;42.698;23.298;2023-01-29T03:33:18;15.17;;;10.53;;
6342;SDS011;3204;42.698;23.298;2023-01-29T03:36:22;9.87;;;8.97;;
6342;SDS011;3204;42.698;23.298;2023-01-29T03:38:51;11.23;;;10.13;;
6342;SDS011;3204;42.698;23.298;2023-01-29T03:41:27;12.83;;;10.90;;
6342;SDS011;3204;42.698;23.298;2023-01-29T03:44:12;10.63;;;9.57;;
6342;SDS011;3204;42.698;23.298;2023-01-29T03:46:54;9.43;;;8.57;;
6342;SDS011;3204;42.698;23.298;2023-01-29T03:51:58;8.97;;;8.17;;
6342;SDS011;3204;42.698;23.298;2023-01-29T03:54:40;9.30;;;8.40;;
6342;SDS011;3204;42.698;23.298;2023-01-29T04:02:29;9.53;;;8.73;;
6342;SDS011;3204;42.698;23.298;2023-01-29T04:05:01;9.90;;;9.00;;
6342;SDS011;3204;42.698;23.298;2023-01-29T04:07:35;9.07;;;8.30;;
6342;SDS011;3204;42.698;23.298;2023-01-29T04:10:04;8.90;;;8.17;;
6342;SDS011;3204;42.698;23.298;2023-01-29T04:12:40;11.07;;;9.00;;
6342;SDS011;3204;42.698;23.298;2023-01-29T04:15:12;11.53;;;10.33;;
6342;SDS011;3204;42.698;23.298;2023-01-29T04:17:41;10.10;;;9.20;;
6342;SDS011;3204;42.698;23.298;2023-01-29T04:20:11;10.80;;;9.90;;
6342;SDS011;3204;42.698;23.298;2023-01-29T04:22:38;10.13;;;9.10;;
6342;SDS011;3204;42.698;23.298;2023-01-29T04:25:15;10.43;;;9.50;;
6342;SDS011;3204;42.698;23.298;2023-01-29T04:31:00;8.80;;;8.20;;
6342;SDS011;3204;42.698;23.298;2023-01-29T04:44:33;9.37;;;8.43;;
6342;SDS011;3204;42.698;23.298;2023-01-29T04:50:48;8.97;;;8.10;;
6342;SDS011;3204;42.698;23.298;2023-01-29T04:53:22;10.07;;;9.13;;
6342;SDS011;3204;42.698;23.298;2023-01-29T04:59:06;14.83;;;10.77;;
6342;SDS011;3204;42.698;23.298;2023-01-29T05:01:35;10.73;;;9.83;;
6342;SDS011;3204;42.698;23.298;2023-01-29T05:04:04;11.47;;;9.60;;
6342;SDS011;3204;42.698;23.298;2023-01-29T05:06:36;8.73;;;8.13;;
6342;SDS011;3204;42.698;23.298;2023-01-29T05:09:03;8.13;;;7.50;;
6342;SDS011;3204;42.698;23.298;2023-01-29T05:11:29;9.27;;;8.57;;
6342;SDS011;3204;42.698;23.298;2023-01-29T05:13:56;10.40;;;9.40;;
6342;SDS011;3204;42.698;23.298;2023-01-29T05:16:23;10.40;;;9.40;;
6342;SDS011;3204;42.698;23.298;2023-01-29T05:18:52;13.73;;;10.97;;
6342;SDS011;3204;42.698;23.298;2023-01-29T05:21:18;9.23;;;8.47;;
6342;SDS011;3204;42.698;23.298;2023-01-29T05:23:58;9.13;;;8.37;;
6342;SDS011;3204;42.698;23.298;2023-01-29T05:26:30;8.77;;;7.90;;
6342;SDS011;3204;42.698;23.298;2023-01-29T05:29:15;8.27;;;7.47;;
6342;SDS011;3204;42.698;23.298;2023-01-29T05:31:42;8.53;;;7.63;;
6342;SDS011;3204;42.698;23.298;2023-01-29T05:34:08;8.00;;;7.40;;
6342;SDS011;3204;42.698;23.298;2023-01-29T05:36:34;8.80;;;8.03;;
6342;SDS011;3204;42.698;23.298;2023-01-29T05:38:59;7.77;;;7.27;;
6342;SDS011;3204;42.698;23.298;2023-01-29T05:41:25;8.00;;;7.40;;
6342;SDS011;3204;42.698;23.298;2023-01-29T05:43:50;8.50;;;7.73;;
6342;SDS011;3204;42.698;23.298;2023-01-29T05:46:16;8.83;;;8.13;;
6342;SDS011;3204;42.698;23.298;2023-01-29T05:48:41;8.83;;;8.33;;
6342;SDS011;3204;42.698;23.298;2023-01-29T05:51:07;11.50;;;10.50;;
6342;SDS011;3204;42.698;23.298;2023-01-29T05:53:32;27.93;;;17.03;;
6342;SDS011;3204;42.698;23.298;2023-01-29T05:56:01;13.07;;;11.63;;
6342;SDS011;3204;42.698;23.298;2023-01-29T05:58:31;11.53;;;10.50;;
6342;SDS011;3204;42.698;23.298;2023-01-29T06:00:57;11.07;;;10.00;;
6342;SDS011;3204;42.698;23.298;2023-01-29T06:03:31;11.40;;;10.43;;
6342;SDS011;3204;42.698;23.298;2023-01-29T06:05:56;11.03;;;10.13;;
6342;SDS011;3204;42.698;23.298;2023-01-29T06:08:22;10.10;;;9.20;;
6342;SDS011;3204;42.698;23.298;2023-01-29T06:10:47;14.70;;;12.13;;
6342;SDS011;3204;42.698;23.298;2023-01-29T06:13:13;12.83;;;11.20;;
6342;SDS011;3204;42.698;23.298;2023-01-29T06:15:39;12.13;;;10.97;;
6342;SDS011;3204;42.698;23.298;2023-01-29T06:18:04;10.17;;;9.30;;
6342;SDS011;3204;42.698;23.298;2023-01-29T06:20:30;10.17;;;9.37;;
6342;SDS011;3204;42.698;23.298;2023-01-29T06:22:55;10.03;;;9.10;;
6342;SDS011;3204;42.698;23.298;2023-01-29T06:25:22;14.70;;;13.20;;
6342;SDS011;3204;42.698;23.298;2023-01-29T06:27:49;11.40;;;10.30;;
6342;SDS011;3204;42.698;23.298;2023-01-29T06:30:15;12.87;;;11.57;;
6342;SDS011;3204;42.698;23.298;2023-01-29T06:32:41;15.97;;;12.03;;
6342;SDS011;3204;42.698;23.298;2023-01-29T06:35:06;11.80;;;10.70;;
6342;SDS011;3204;42.698;23.298;2023-01-29T06:37:33;14.30;;;11.17;;
6342;SDS011;3204;42.698;23.298;2023-01-29T06:39:59;26.90;;;16.23;;
6342;SDS011;3204;42.698;23.298;2023-01-29T06:42:24;16.23;;;12.20;;
6342;SDS011;3204;42.698;23.298;2023-01-29T06:44:52;24.13;;;15.77;;
6342;SDS011;3204;42.698;23.298;2023-01-29T06:47:19;14.70;;;13.10;;
6342;SDS011;3204;42.698;23.298;2023-01-29T06:49:44;17.33;;;13.57;;
6342;SDS011;3204;42.698;23.298;2023-01-29T06:52:10;22.53;;;15.50;;
6342;SDS011;3204;42.698;23.298;2023-01-29T06:54:35;16.80;;;13.67;;
6342;SDS011;3204;42.698;23.298;2023-01-29T06:57:01;17.57;;;13.30;;
6342;SDS011;3204;42.698;23.298;2023-01-29T06:59:26;23.73;;;15.40;;
6342;SDS011;3204;42.698;23.298;2023-01-29T07:01:52;19.07;;;14.07;;
6342;SDS011;3204;42.698;23.298;2023-01-29T07:04:17;16.57;;;12.50;;
6342;SDS011;3204;42.698;23.298;2023-01-29T07:06:43;13.73;;;11.53;;
6342;SDS011;3204;42.698;23.298;2023-01-29T07:09:10;14.97;;;12.23;;
6342;SDS011;3204;42.698;23.298;2023-01-29T07:11:37;15.70;;;12.57;;
6342;SDS011;3204;42.698;23.298;2023-01-29T07:14:03;16.80;;;12.73;;
6342;SDS011;3204;42.698;23.298;2023-01-29T07:16:29;17.77;;;12.77;;
6342;SDS011;3204;42.698;23.298;2023-01-29T07:18:55;15.27;;;12.33;;
6342;SDS011;3204;42.698;23.298;2023-01-29T07:21:21;14.70;;;12.07;;
6342;SDS011;3204;42.698;23.298;2023-01-29T07:23:47;15.60;;;11.57;;
6342;SDS011;3204;42.698;23.298;2023-01-29T07:26:12;14.83;;;11.77;;
6342;SDS011;3204;42.698;23.298;2023-01-29T07:28:39;17.57;;;12.23;;
6342;SDS011;3204;42.698;23.298;2023-01-29T07:31:05;14.70;;;12.10;;
6342;SDS011;3204;42.698;23.298;2023-01-29T07:33:31;13.90;;;12.27;;
6342;SDS011;3204;42.698;23.298;2023-01-29T07:35:56;20.30;;;13.90;;
6342;SDS011;3204;42.698;23.298;2023-01-29T07:38:22;22.03;;;13.97;;
6342;SDS011;3204;42.698;23.298;2023-01-29T07:40:47;12.53;;;10.70;;
6342;SDS011;3204;42.698;23.298;2023-01-29T07:43:13;12.97;;;11.67;;
6342;SDS011;3204;42.698;23.298;2023-01-29T07:45:40;10.97;;;10.00;;
6342;SDS011;3204;42.698;23.298;2023-01-29T07:48:06;13.43;;;11.57;;
6342;SDS011;3204;42.698;23.298;2023-01-29T07:50:34;14.00;;;11.60;;
6342;SDS011;3204;42.698;23.298;2023-01-29T07:53:00;12.63;;;11.37;;
6342;SDS011;3204;42.698;23.298;2023-01-29T07:55:25;11.60;;;10.40;;
6342;SDS011;3204;42.698;23.298;2023-01-29T07:58:09;14.10;;;12.60;;
6342;SDS011;3204;42.698;23.298;2023-01-29T08:00:35;14.60;;;11.77;;
6342;SDS011;3204;42.698;23.298;2023-01-29T08:03:01;16.00;;;13.47;;
6342;SDS011;3204;42.698;23.298;2023-01-29T08:05:31;16.40;;;12.47;;
6342;SDS011;3204;42.698;23.298;2023-01-29T08:07:57;14.37;;;12.43;;
6342;SDS011;3204;42.698;23.298;2023-01-29T08:10:23;13.20;;;11.80;;
6342;SDS011;3204;42.698;23.298;2023-01-29T08:12:55;12.50;;;11.30;;
6342;SDS011;3204;42.698;23.298;2023-01-29T08:15:21;12.77;;;11.47;;
6342;SDS011;3204;42.698;23.298;2023-01-29T08:17:47;12.80;;;11.70;;
6342;SDS011;3204;42.698;23.298;2023-01-29T08:20:13;13.37;;;12.00;;
6342;SDS011;3204;42.698;23.298;2023-01-29T08:22:38;17.37;;;13.30;;
6342;SDS011;3204;42.698;23.298;2023-01-29T08:25:04;13.20;;;11.80;;
6342;SDS011;3204;42.698;23.298;2023-01-29T08:27:29;13.67;;;12.23;;
6342;SDS011;3204;42.698;23.298;2023-01-29T08:29:55;18.20;;;14.23;;
6342;SDS011;3204;42.698;23.298;2023-01-29T08:32:20;18.00;;;13.77;;
6342;SDS011;3204;42.698;23.298;2023-01-29T08:34:46;14.13;;;12.77;;
6342;SDS011;3204;42.698;23.298;2023-01-29T08:37:11;14.93;;;13.40;;
6342;SDS011;3204;42.698;23.298;2023-01-29T08:39:36;13.60;;;11.97;;
6342;SDS011;3204;42.698;23.298;2023-01-29T08:42:02;14.60;;;11.50;;
6342;SDS011;3204;42.698;23.298;2023-01-29T08:44:28;14.57;;;13.00;;
6342;SDS011;3204;42.698;23.298;2023-01-29T08:46:53;17.17;;;13.70;;
6342;SDS011;3204;42.698;23.298;2023-01-29T08:49:19;19.13;;;13.93;;
6342;SDS011;3204;42.698;23.298;2023-01-29T08:51:44;14.20;;;12.13;;
6342;SDS011;3204;42.698;23.298;2023-01-29T08:54:10;21.97;;;13.53;;
6342;SDS011;3204;42.698;23.298;2023-01-29T08:56:35;14.03;;;12.63;;
6342;SDS011;3204;42.698;23.298;2023-01-29T08:59:01;14.50;;;12.50;;
6342;SDS011;3204;42.698;23.298;2023-01-29T09:01:27;16.67;;;12.93;;
6342;SDS011;3204;42.698;23.298;2023-01-29T09:03:52;15.07;;;12.67;;
6342;SDS011;3204;42.698;23.298;2023-01-29T09:06:17;14.37;;;12.50;;
6342;SDS011;3204;42.698;23.298;2023-01-29T09:08:43;12.63;;;11.33;;
6342;SDS011;3204;42.698;23.298;2023-01-29T09:11:08;14.40;;;12.40;;
6342;SDS011;3204;42.698;23.298;2023-01-29T09:13:35;14.10;;;12.57;;
6342;SDS011;3204;42.698;23.298;2023-01-29T09:16:01;15.80;;;13.57;;
6342;SDS011;3204;42.698;23.298;2023-01-29T09:18:27;17.80;;;13.23;;
6342;SDS011;3204;42.698;23.298;2023-01-29T09:20:54;18.40;;;13.33;;
6342;SDS011;3204;42.698;23.298;2023-01-29T09:23:19;14.90;;;13.37;;
6342;SDS011;3204;42.698;23.298;2023-01-29T09:25:45;17.23;;;12.30;;
6342;SDS011;3204;42.698;23.298;2023-01-29T09:28:11;14.03;;;12.43;;
6342;SDS011;3204;42.698;23.298;2023-01-29T09:30:37;19.37;;;14.37;;
6342;SDS011;3204;42.698;23.298;2023-01-29T09:33:03;15.63;;;12.73;;
6342;SDS011;3204;42.698;23.298;2023-01-29T09:35:32;15.17;;;12.53;;
6342;SDS011;3204;42.698;23.298;2023-01-29T09:37:59;14.83;;;12.77;;
6342;SDS011;3204;42.698;23.298;2023-01-29T09:43:06;16.03;;;13.27;;
6342;SDS011;3204;42.698;23.298;2023-01-29T09:45:38;18.07;;;13.93;;
6342;SDS011;3204;42.698;23.298;2023-01-29T09:48:27;20.00;;;14.63;;
6342;SDS011;3204;42.698;23.298;2023-01-29T09:50:56;21.30;;;16.07;;
6342;SDS011;3204;42.698;23.298;2023-01-29T09:53:41;17.37;;;13.93;;
6342;SDS011;3204;42.698;23.298;2023-01-29T09:56:11;15.27;;;12.17;;
6342;SDS011;3204;42.698;23.298;2023-01-29T09:58:52;15.30;;;13.57;;
6342;SDS011;3204;42.698;23.298;2023-01-29T10:01:24;16.63;;;14.10;;
6342;SDS011;3204;42.698;23.298;2023-01-29T10:04:04;16.77;;;13.40;;
6342;SDS011;3204;42.698;23.298;2023-01-29T10:09:40;19.70;;;14.20;;
6342;SDS011;3204;42.698;23.298;2023-01-29T10:12:55;20.17;;;14.53;;
6342;SDS011;3204;42.698;23.298;2023-01-29T10:23:52;24.97;;;17.07;;
6342;SDS011;3204;42.698;23.298;2023-01-29T10:26:33;25.10;;;16.67;;
6342;SDS011;3204;42.698;23.298;2023-01-29T10:29:01;27.20;;;18.07;;
6342;SDS011;3204;42.698;23.298;2023-01-29T10:31:32;25.10;;;17.17;;
6342;SDS011;3204;42.698;23.298;2023-01-29T10:34:06;24.30;;;16.80;;
6342;SDS011;3204;42.698;23.298;2023-01-29T10:39:16;18.90;;;14.23;;
6342;SDS011;3204;42.698;23.298;2023-01-29T10:44:49;24.33;;;16.63;;
6342;SDS011;3204;42.698;23.298;2023-01-29T10:55:45;28.07;;;18.47;;
6342;SDS011;3204;42.698;23.298;2023-01-29T11:00:51;35.90;;;19.53;;
6342;SDS011;3204;42.698;23.298;2023-01-29T11:03:27;30.83;;;18.93;;
6342;SDS011;3204;42.698;23.298;2023-01-29T11:06:07;25.03;;;16.10;;
6342;SDS011;3204;42.698;23.298;2023-01-29T11:11:14;27.90;;;17.30;;
6342;SDS011;3204;42.698;23.298;2023-01-29T11:16:23;25.50;;;16.83;;
6342;SDS011;3204;42.698;23.298;2023-01-29T11:18:50;24.40;;;16.53;;
6342;SDS011;3204;42.698;23.298;2023-01-29T11:21:16;22.30;;;16.17;;
6342;SDS011;3204;42.698;23.298;2023-01-29T11:23:41;21.73;;;15.57;;
6342;SDS011;3204;42.698;23.298;2023-01-29T11:26:07;20.07;;;14.97;;
6342;SDS011;3204;42.698;23.298;2023-01-29T11:28:40;19.97;;;14.57;;
6342;SDS011;3204;42.698;23.298;2023-01-29T11:31:17;21.00;;;15.37;;
6342;SDS011;3204;42.698;23.298;2023-01-29T11:34:22;24.47;;;16.67;;
6342;SDS011;3204;42.698;23.298;2023-01-29T11:36:59;27.87;;;17.17;;
6342;SDS011;3204;42.698;23.298;2023-01-29T11:39:30;23.40;;;17.43;;
6342;SDS011;3204;42.698;23.298;2023-01-29T11:42:00;22.80;;;15.93;;
6342;SDS011;3204;42.698;23.298;2023-01-29T11:49:38;23.33;;;15.97;;
6342;SDS011;3204;42.698;23.298;2023-01-29T11:52:08;21.20;;;14.97;;
6342;SDS011;3204;42.698;23.298;2023-01-29T11:54:36;24.63;;;15.53;;
6342;SDS011;3204;42.698;23.298;2023-01-29T11:57:15;19.10;;;13.87;;
6342;SDS011;3204;42.698;23.298;2023-01-29T11:59:49;19.60;;;15.00;;
6342;SDS011;3204;42.698;23.298;2023-01-29T12:04:55;20.33;;;16.17;;
6342;SDS011;3204;42.698;23.298;2023-01-29T12:07:23;19.17;;;14.90;;
6342;SDS011;3204;42.698;23.298;2023-01-29T12:09:53;22.90;;;14.27;;
6342;SDS011;3204;42.698;23.298;2023-01-29T12:12:27;24.23;;;16.27;;
6342;SDS011;3204;42.698;23.298;2023-01-29T12:15:09;21.50;;;15.30;;
6342;SDS011;3204;42.698;23.298;2023-01-29T12:17:41;25.60;;;16.43;;
6342;SDS011;3204;42.698;23.298;2023-01-29T12:20:13;19.90;;;15.80;;
6342;SDS011;3204;42.698;23.298;2023-01-29T12:30:47;16.93;;;14.07;;
6342;SDS011;3204;42.698;23.298;2023-01-29T12:36:16;33.23;;;19.43;;
6342;SDS011;3204;42.698;23.298;2023-01-29T12:38:43;21.90;;;15.40;;
6342;SDS011;3204;42.698;23.298;2023-01-29T12:41:29;25.73;;;16.97;;
6342;SDS011;3204;42.698;23.298;2023-01-29T12:44:17;20.17;;;14.83;;
6342;SDS011;3204;42.698;23.298;2023-01-29T12:46:48;18.57;;;13.67;;
6342;SDS011;3204;42.698;23.298;2023-01-29T12:49:30;21.63;;;15.07;;
6342;SDS011;3204;42.698;23.298;2023-01-29T12:52:20;18.83;;;13.97;;
6342;SDS011;3204;42.698;23.298;2023-01-29T12:54:53;19.90;;;14.23;;
6342;SDS011;3204;42.698;23.298;2023-01-29T12:57:25;24.60;;;15.57;;
6342;SDS011;3204;42.698;23.298;2023-01-29T13:00:03;23.37;;;15.20;;
6342;SDS011;3204;42.698;23.298;2023-01-29T13:02:38;20.23;;;14.73;;
6342;SDS011;3204;42.698;23.298;2023-01-29T13:07:42;20.83;;;16.03;;
6342;SDS011;3204;42.698;23.298;2023-01-29T13:10:14;34.30;;;21.77;;
6342;SDS011;3204;42.698;23.298;2023-01-29T13:12:50;22.47;;;14.80;;
6342;SDS011;3204;42.698;23.298;2023-01-29T13:15:42;17.30;;;13.07;;
6342;SDS011;3204;42.698;23.298;2023-01-29T13:21:00;18.37;;;14.87;;
6342;SDS011;3204;42.698;23.298;2023-01-29T13:23:32;23.30;;;16.83;;
6342;SDS011;3204;42.698;23.298;2023-01-29T13:26:02;22.40;;;15.60;;
6342;SDS011;3204;42.698;23.298;2023-01-29T13:28:29;20.27;;;14.60;;
6342;SDS011;3204;42.698;23.298;2023-01-29T13:34:12;19.87;;;14.63;;
6342;SDS011;3204;42.698;23.298;2023-01-29T13:36:44;19.93;;;14.97;;
6342;SDS011;3204;42.698;23.298;2023-01-29T13:41:49;14.87;;;12.63;;
6342;SDS011;3204;42.698;23.298;2023-01-29T13:44:18;16.47;;;12.90;;
6342;SDS011;3204;42.698;23.298;2023-01-29T13:46:53;18.73;;;13.63;;
6342;SDS011;3204;42.698;23.298;2023-01-29T13:52:19;19.77;;;13.90;;
6342;SDS011;3204;42.698;23.298;2023-01-29T13:55:00;17.30;;;13.50;;
6342;SDS011;3204;42.698;23.298;2023-01-29T14:02:41;20.90;;;14.27;;
6342;SDS011;3204;42.698;23.298;2023-01-29T14:11:41;20.57;;;13.83;;
6342;SDS011;3204;42.698;23.298;2023-01-29T14:13:59;19.37;;;13.47;;
6342;SDS011;3204;42.698;23.298;2023-01-29T14:16:26;17.27;;;13.03;;
6342;SDS011;3204;42.698;23.298;2023-01-29T14:18:59;16.63;;;12.50;;
6342;SDS011;3204;42.698;23.298;2023-01-29T14:21:27;17.77;;;12.93;;
6342;SDS011;3204;42.698;23.298;2023-01-29T14:23:57;17.90;;;13.97;;
6342;SDS011;3204;42.698;23.298;2023-01-29T14:26:39;17.50;;;13.93;;
6342;SDS011;3204;42.698;23.298;2023-01-29T14:34:16;19.77;;;14.40;;
6342;SDS011;3204;42.698;23.298;2023-01-29T14:36:43;22.27;;;15.03;;
6342;SDS011;3204;42.698;23.298;2023-01-29T14:42:21;23.00;;;15.33;;
6342;SDS011;3204;42.698;23.298;2023-01-29T14:44:52;24.80;;;16.07;;
6342;SDS011;3204;42.698;23.298;2023-01-29T14:49:52;26.27;;;16.97;;
6342;SDS011;3204;42.698;23.298;2023-01-29T14:52:24;23.87;;;16.97;;
6342;SDS011;3204;42.698;23.298;2023-01-29T14:54:59;37.57;;;24.93;;
6342;SDS011;3204;42.698;23.298;2023-01-29T14:57:29;27.50;;;17.87;;
6342;SDS011;3204;42.698;23.298;2023-01-29T14:59:56;27.43;;;18.27;;
6342;SDS011;3204;42.698;23.298;2023-01-29T15:02:26;28.50;;;16.90;;
6342;SDS011;3204;42.698;23.298;2023-01-29T15:05:01;26.27;;;16.97;;
6342;SDS011;3204;42.698;23.298;2023-01-29T15:10:44;39.77;;;21.57;;
6342;SDS011;3204;42.698;23.298;2023-01-29T15:13:37;35.57;;;20.90;;
6342;SDS011;3204;42.698;23.298;2023-01-29T15:16:18;34.10;;;20.30;;
6342;SDS011;3204;42.698;23.298;2023-01-29T15:18:49;31.53;;;17.77;;
6342;SDS011;3204;42.698;23.298;2023-01-29T15:21:19;45.70;;;24.43;;
6342;SDS011;3204;42.698;23.298;2023-01-29T15:23:44;34.63;;;20.77;;
6342;SDS011;3204;42.698;23.298;2023-01-29T15:26:22;30.67;;;18.37;;
6342;SDS011;3204;42.698;23.298;2023-01-29T15:28:55;32.13;;;19.00;;
6342;SDS011;3204;42.698;23.298;2023-01-29T15:31:21;23.90;;;15.93;;
6342;SDS011;3204;42.698;23.298;2023-01-29T15:33:47;34.00;;;19.70;;
6342;SDS011;3204;42.698;23.298;2023-01-29T15:36:17;28.13;;;16.13;;
6342;SDS011;3204;42.698;23.298;2023-01-29T15:38:46;23.23;;;16.13;;
6342;SDS011;3204;42.698;23.298;2023-01-29T15:41:16;27.13;;;16.73;;
6342;SDS011;3204;42.698;23.298;2023-01-29T15:43:47;32.63;;;20.30;;
6342;SDS011;3204;42.698;23.298;2023-01-29T15:48:43;25.37;;;16.30;;
6342;SDS011;3204;42.698;23.298;2023-01-29T15:51:12;23.20;;;15.73;;
6342;SDS011;3204;42.698;23.298;2023-01-29T15:53:42;24.70;;;16.67;;
6342;SDS011;3204;42.698;23.298;2023-01-29T15:56:11;23.80;;;16.57;;
6342;SDS011;3204;42.698;23.298;2023-01-29T15:58:41;20.60;;;14.13;;
6342;SDS011;3204;42.698;23.298;2023-01-29T16:01:07;20.70;;;14.67;;
6342;SDS011;3204;42.698;23.298;2023-01-29T16:03:33;22.17;;;15.33;;
6342;SDS011;3204;42.698;23.298;2023-01-29T16:06:00;23.90;;;15.90;;
6342;SDS011;3204;42.698;23.298;2023-01-29T16:08:26;23.63;;;16.73;;
6342;SDS011;3204;42.698;23.298;2023-01-29T16:10:53;26.60;;;17.47;;
6342;SDS011;3204;42.698;23.298;2023-01-29T16:13:25;26.20;;;16.13;;
6342;SDS011;3204;42.698;23.298;2023-01-29T16:15:56;19.97;;;14.13;;
6342;SDS011;3204;42.698;23.298;2023-01-29T16:18:31;23.83;;;15.27;;
6342;SDS011;3204;42.698;23.298;2023-01-29T16:21:02;25.50;;;17.23;;
6342;SDS011;3204;42.698;23.298;2023-01-29T16:23:39;26.17;;;17.60;;
6342;SDS011;3204;42.698;23.298;2023-01-29T16:26:07;28.47;;;17.53;;
6342;SDS011;3204;42.698;23.298;2023-01-29T16:28:40;23.70;;;16.50;;
6342;SDS011;3204;42.698;23.298;2023-01-29T16:31:07;28.47;;;17.83;;
6342;SDS011;3204;42.698;23.298;2023-01-29T16:33:35;31.37;;;19.20;;
6342;SDS011;3204;42.698;23.298;2023-01-29T16:36:03;39.80;;;22.30;;
6342;SDS011;3204;42.698;23.298;2023-01-29T16:38:38;51.07;;;24.93;;
6342;SDS011;3204;42.698;23.298;2023-01-29T16:43:47;35.03;;;20.73;;
6342;SDS011;3204;42.698;23.298;2023-01-29T16:46:30;31.10;;;19.83;;
6342;SDS011;3204;42.698;23.298;2023-01-29T16:48:58;30.17;;;18.63;;
6342;SDS011;3204;42.698;23.298;2023-01-29T16:51:25;30.03;;;18.27;;
6342;SDS011;3204;42.698;23.298;2023-01-29T16:56:22;31.00;;;20.27;;
6342;SDS011;3204;42.698;23.298;2023-01-29T16:58:50;27.93;;;16.57;;
6342;SDS011;3204;42.698;23.298;2023-01-29T17:01:17;31.53;;;17.97;;
6342;SDS011;3204;42.698;23.298;2023-01-29T17:03:46;22.83;;;15.70;;
6342;SDS011;3204;42.698;23.298;2023-01-29T17:06:20;27.47;;;17.67;;
6342;SDS011;3204;42.698;23.298;2023-01-29T17:08:48;26.43;;;17.90;;
6342;SDS011;3204;42.698;23.298;2023-01-29T17:11:22;32.70;;;20.03;;
6342;SDS011;3204;42.698;23.298;2023-01-29T17:13:51;33.10;;;21.23;;
6342;SDS011;3204;42.698;23.298;2023-01-29T17:16:29;36.43;;;23.13;;
6342;SDS011;3204;42.698;23.298;2023-01-29T17:18:57;36.00;;;22.00;;
6342;SDS011;3204;42.698;23.298;2023-01-29T17:21:23;40.87;;;23.43;;
6342;SDS011;3204;42.698;23.298;2023-01-29T17:23:49;42.90;;;23.67;;
6342;SDS011;3204;42.698;23.298;2023-01-29T17:26:15;36.97;;;22.33;;
6342;SDS011;3204;42.698;23.298;2023-01-29T17:28:41;35.20;;;21.23;;
6342;SDS011;3204;42.698;23.298;2023-01-29T17:31:07;34.60;;;21.87;;
6342;SDS011;3204;42.698;23.298;2023-01-29T17:33:33;45.40;;;23.70;;
6342;SDS011;3204;42.698;23.298;2023-01-29T17:36:01;32.63;;;19.57;;
6342;SDS011;3204;42.698;23.298;2023-01-29T17:38:26;29.27;;;18.57;;
6342;SDS011;3204;42.698;23.298;2023-01-29T17:41:12;28.03;;;18.73;;
6342;SDS011;3204;42.698;23.298;2023-01-29T17:43:42;27.40;;;17.10;;